sensor_id;sensor_type;location;lat;lon;timestamp;temperature;humidity
68912;SHT31;55953;51.650;-0.522;2024-02-26T00:01:38;5.16;86.82
68912;SHT31;55953;51.650;-0.522;2024-02-26T00:04:06;5.17;87.04
68912;SHT31;55953;51.650;-0.522;2024-02-26T00:06:34;5.17;86.98
68912;SHT31;55953;51.650;-0.522;2024-02-26T00:09:02;5.17;86.71
68912;SHT31;55953;51.650;-0.522;2024-02-26T00:11:33;5.18;86.74
68912;SHT31;55953;51.650;-0.522;2024-02-26T00:14:04;5.18;86.57
68912;SHT31;55953;51.650;-0.522;2024-02-26T00:16:32;5.19;86.76
68912;SHT31;55953;51.650;-0.522;2024-02-26T00:19:00;5.20;86.87
68912;SHT31;55953;51.650;-0.522;2024-02-26T00:21:28;5.19;86.48
68912;SHT31;55953;51.650;-0.522;2024-02-26T00:23:56;5.20;86.70
68912;SHT31;55953;51.650;-0.522;2024-02-26T00:26:24;5.21;86.54
68912;SHT31;55953;51.650;-0.522;2024-02-26T00:28:52;5.21;86.38
68912;SHT31;55953;51.650;-0.522;2024-02-26T00:31:20;5.21;86.33
68912;SHT31;55953;51.650;-0.522;2024-02-26T00:33:48;5.22;86.48
68912;SHT31;55953;51.650;-0.522;2024-02-26T00:36:16;5.20;86.30
68912;SHT31;55953;51.650;-0.522;2024-02-26T00:38:45;5.20;86.20
68912;SHT31;55953;51.650;-0.522;2024-02-26T00:41:18;5.20;86.17
68912;SHT31;55953;51.650;-0.522;2024-02-26T00:43:46;5.22;86.29
68912;SHT31;55953;51.650;-0.522;2024-02-26T00:46:14;5.22;86.20
68912;SHT31;55953;51.650;-0.522;2024-02-26T00:48:42;5.24;86.05
68912;SHT31;55953;51.650;-0.522;2024-02-26T00:51:11;5.24;86.04
68912;SHT31;55953;51.650;-0.522;2024-02-26T00:53:39;5.25;86.08
68912;SHT31;55953;51.650;-0.522;2024-02-26T00:56:07;5.26;86.16
68912;SHT31;55953;51.650;-0.522;2024-02-26T00:58:35;5.26;85.96
68912;SHT31;55953;51.650;-0.522;2024-02-26T01:01:03;5.29;86.04
68912;SHT31;55953;51.650;-0.522;2024-02-26T01:03:31;5.28;85.74
68912;SHT31;55953;51.650;-0.522;2024-02-26T01:05:59;5.30;85.70
68912;SHT31;55953;51.650;-0.522;2024-02-26T01:08:27;5.30;85.55
68912;SHT31;55953;51.650;-0.522;2024-02-26T01:10:55;5.31;85.39
68912;SHT31;55953;51.650;-0.522;2024-02-26T01:13:23;5.33;85.52
68912;SHT31;55953;51.650;-0.522;2024-02-26T01:15:51;5.34;85.53
68912;SHT31;55953;51.650;-0.522;2024-02-26T01:18:19;5.35;85.41
68912;SHT31;55953;51.650;-0.522;2024-02-26T01:20:47;5.34;85.19
68912;SHT31;55953;51.650;-0.522;2024-02-26T01:23:15;5.35;85.04
68912;SHT31;55953;51.650;-0.522;2024-02-26T01:25:43;5.36;85.01
68912;SHT31;55953;51.650;-0.522;2024-02-26T01:28:11;5.37;85.05
68912;SHT31;55953;51.650;-0.522;2024-02-26T01:30:39;5.38;85.04
68912;SHT31;55953;51.650;-0.522;2024-02-26T01:33:07;5.39;85.28
68912;SHT31;55953;51.650;-0.522;2024-02-26T01:35:35;5.40;84.89
68912;SHT31;55953;51.650;-0.522;2024-02-26T01:38:03;5.41;84.72
68912;SHT31;55953;51.650;-0.522;2024-02-26T01:40:31;5.42;84.45
68912;SHT31;55953;51.650;-0.522;2024-02-26T01:42:59;5.44;84.78
68912;SHT31;55953;51.650;-0.522;2024-02-26T01:45:28;5.45;84.88
68912;SHT31;55953;51.650;-0.522;2024-02-26T01:47:56;5.45;84.65
68912;SHT31;55953;51.650;-0.522;2024-02-26T01:50:24;5.47;84.76
68912;SHT31;55953;51.650;-0.522;2024-02-26T01:52:54;5.46;84.77
68912;SHT31;55953;51.650;-0.522;2024-02-26T01:55:23;5.48;84.59
68912;SHT31;55953;51.650;-0.522;2024-02-26T01:57:53;5.49;84.19
68912;SHT31;55953;51.650;-0.522;2024-02-26T02:00:21;5.52;84.30
68912;SHT31;55953;51.650;-0.522;2024-02-26T02:02:50;5.52;84.36
68912;SHT31;55953;51.650;-0.522;2024-02-26T02:05:20;5.51;84.34
68912;SHT31;55953;51.650;-0.522;2024-02-26T02:07:49;5.53;84.51
68912;SHT31;55953;51.650;-0.522;2024-02-26T02:10:17;5.51;83.93
68912;SHT31;55953;51.650;-0.522;2024-02-26T02:12:50;5.51;83.63
68912;SHT31;55953;51.650;-0.522;2024-02-26T02:15:19;5.53;83.41
68912;SHT31;55953;51.650;-0.522;2024-02-26T02:17:48;5.55;83.69
68912;SHT31;55953;51.650;-0.522;2024-02-26T02:20:16;5.54;83.71
68912;SHT31;55953;51.650;-0.522;2024-02-26T02:22:46;5.54;83.66
68912;SHT31;55953;51.650;-0.522;2024-02-26T02:25:14;5.56;83.41
68912;SHT31;55953;51.650;-0.522;2024-02-26T02:27:42;5.57;83.62
68912;SHT31;55953;51.650;-0.522;2024-02-26T02:30:11;5.57;83.56
68912;SHT31;55953;51.650;-0.522;2024-02-26T02:32:39;5.55;83.26
68912;SHT31;55953;51.650;-0.522;2024-02-26T02:35:09;5.55;83.19
68912;SHT31;55953;51.650;-0.522;2024-02-26T02:37:37;5.54;82.83
68912;SHT31;55953;51.650;-0.522;2024-02-26T02:40:05;5.54;82.84
68912;SHT31;55953;51.650;-0.522;2024-02-26T02:42:34;5.56;83.19
68912;SHT31;55953;51.650;-0.522;2024-02-26T02:45:02;5.52;82.88
68912;SHT31;55953;51.650;-0.522;2024-02-26T02:47:30;5.51;82.68
68912;SHT31;55953;51.650;-0.522;2024-02-26T02:49:58;5.48;82.80
68912;SHT31;55953;51.650;-0.522;2024-02-26T02:52:26;5.46;82.47
68912;SHT31;55953;51.650;-0.522;2024-02-26T02:54:54;5.48;82.91
68912;SHT31;55953;51.650;-0.522;2024-02-26T02:57:22;5.46;82.81
68912;SHT31;55953;51.650;-0.522;2024-02-26T02:59:50;5.44;82.56
68912;SHT31;55953;51.650;-0.522;2024-02-26T03:02:18;5.44;82.35
68912;SHT31;55953;51.650;-0.522;2024-02-26T03:04:46;5.42;82.24
68912;SHT31;55953;51.650;-0.522;2024-02-26T03:07:14;5.40;82.02
68912;SHT31;55953;51.650;-0.522;2024-02-26T03:09:42;5.41;82.18
68912;SHT31;55953;51.650;-0.522;2024-02-26T03:12:10;5.40;82.08
68912;SHT31;55953;51.650;-0.522;2024-02-26T03:14:38;5.41;82.09
68912;SHT31;55953;51.650;-0.522;2024-02-26T03:17:06;5.40;82.31
68912;SHT31;55953;51.650;-0.522;2024-02-26T03:19:34;5.38;82.18
68912;SHT31;55953;51.650;-0.522;2024-02-26T03:22:02;5.35;81.83
68912;SHT31;55953;51.650;-0.522;2024-02-26T03:24:30;5.38;82.03
68912;SHT31;55953;51.650;-0.522;2024-02-26T03:26:58;5.39;82.19
68912;SHT31;55953;51.650;-0.522;2024-02-26T03:29:26;5.38;81.80
68912;SHT31;55953;51.650;-0.522;2024-02-26T03:31:54;5.39;81.97
68912;SHT31;55953;51.650;-0.522;2024-02-26T03:34:22;5.38;81.59
68912;SHT31;55953;51.650;-0.522;2024-02-26T03:36:51;5.37;81.38
68912;SHT31;55953;51.650;-0.522;2024-02-26T03:39:19;5.40;81.29
68912;SHT31;55953;51.650;-0.522;2024-02-26T03:41:47;5.39;80.99
68912;SHT31;55953;51.650;-0.522;2024-02-26T03:44:15;5.41;81.17
68912;SHT31;55953;51.650;-0.522;2024-02-26T03:46:44;5.40;80.99
68912;SHT31;55953;51.650;-0.522;2024-02-26T03:49:12;5.40;81.09
68912;SHT31;55953;51.650;-0.522;2024-02-26T03:51:41;5.38;80.62
68912;SHT31;55953;51.650;-0.522;2024-02-26T03:54:08;5.38;80.55
68912;SHT31;55953;51.650;-0.522;2024-02-26T03:56:37;5.39;80.21
68912;SHT31;55953;51.650;-0.522;2024-02-26T03:59:05;5.38;80.29
68912;SHT31;55953;51.650;-0.522;2024-02-26T04:01:33;5.37;79.98
68912;SHT31;55953;51.650;-0.522;2024-02-26T04:04:01;5.37;80.02
68912;SHT31;55953;51.650;-0.522;2024-02-26T04:06:29;5.39;80.42
68912;SHT31;55953;51.650;-0.522;2024-02-26T04:08:57;5.37;80.22
68912;SHT31;55953;51.650;-0.522;2024-02-26T04:11:25;5.37;80.57
68912;SHT31;55953;51.650;-0.522;2024-02-26T04:13:52;5.37;80.03
68912;SHT31;55953;51.650;-0.522;2024-02-26T04:16:20;5.38;79.97
68912;SHT31;55953;51.650;-0.522;2024-02-26T04:18:48;5.39;79.89
68912;SHT31;55953;51.650;-0.522;2024-02-26T04:21:17;5.39;79.60
68912;SHT31;55953;51.650;-0.522;2024-02-26T04:23:45;5.40;79.69
68912;SHT31;55953;51.650;-0.522;2024-02-26T04:26:12;5.41;80.09
68912;SHT31;55953;51.650;-0.522;2024-02-26T04:28:40;5.40;79.92
68912;SHT31;55953;51.650;-0.522;2024-02-26T04:31:08;5.40;79.49
68912;SHT31;55953;51.650;-0.522;2024-02-26T04:33:36;5.42;79.48
68912;SHT31;55953;51.650;-0.522;2024-02-26T04:36:04;5.42;79.60
68912;SHT31;55953;51.650;-0.522;2024-02-26T04:38:32;5.42;80.03
68912;SHT31;55953;51.650;-0.522;2024-02-26T04:41:00;5.41;80.17
68912;SHT31;55953;51.650;-0.522;2024-02-26T04:43:28;5.42;79.84
68912;SHT31;55953;51.650;-0.522;2024-02-26T04:45:56;5.41;79.43
68912;SHT31;55953;51.650;-0.522;2024-02-26T04:48:24;5.42;79.59
68912;SHT31;55953;51.650;-0.522;2024-02-26T04:50:55;5.42;79.60
68912;SHT31;55953;51.650;-0.522;2024-02-26T04:53:23;5.39;79.35
68912;SHT31;55953;51.650;-0.522;2024-02-26T04:55:51;5.39;79.29
68912;SHT31;55953;51.650;-0.522;2024-02-26T04:58:19;5.40;79.33
68912;SHT31;55953;51.650;-0.522;2024-02-26T05:00:47;5.40;79.28
68912;SHT31;55953;51.650;-0.522;2024-02-26T05:03:15;5.37;78.71
68912;SHT31;55953;51.650;-0.522;2024-02-26T05:05:43;5.39;78.39
68912;SHT31;55953;51.650;-0.522;2024-02-26T05:08:12;5.40;78.60
68912;SHT31;55953;51.650;-0.522;2024-02-26T05:10:40;5.38;77.81
68912;SHT31;55953;51.650;-0.522;2024-02-26T05:13:08;5.37;77.87
68912;SHT31;55953;51.650;-0.522;2024-02-26T05:15:37;5.37;77.97
68912;SHT31;55953;51.650;-0.522;2024-02-26T05:18:04;5.38;77.99
68912;SHT31;55953;51.650;-0.522;2024-02-26T05:20:33;5.36;77.83
68912;SHT31;55953;51.650;-0.522;2024-02-26T05:23:03;5.35;77.31
68912;SHT31;55953;51.650;-0.522;2024-02-26T05:25:31;5.34;77.41
68912;SHT31;55953;51.650;-0.522;2024-02-26T05:27:59;5.34;77.12
68912;SHT31;55953;51.650;-0.522;2024-02-26T05:30:27;5.32;77.30
68912;SHT31;55953;51.650;-0.522;2024-02-26T05:32:56;5.32;77.14
68912;SHT31;55953;51.650;-0.522;2024-02-26T05:35:25;5.31;76.91
68912;SHT31;55953;51.650;-0.522;2024-02-26T05:37:53;5.29;77.13
68912;SHT31;55953;51.650;-0.522;2024-02-26T05:40:21;5.27;77.09
68912;SHT31;55953;51.650;-0.522;2024-02-26T05:42:49;5.26;77.06
68912;SHT31;55953;51.650;-0.522;2024-02-26T05:45:17;5.27;77.63
68912;SHT31;55953;51.650;-0.522;2024-02-26T05:47:45;5.25;77.22
68912;SHT31;55953;51.650;-0.522;2024-02-26T05:50:13;5.27;77.33
68912;SHT31;55953;51.650;-0.522;2024-02-26T05:52:43;5.27;77.22
68912;SHT31;55953;51.650;-0.522;2024-02-26T05:55:11;5.26;76.73
68912;SHT31;55953;51.650;-0.522;2024-02-26T05:57:39;5.28;76.67
68912;SHT31;55953;51.650;-0.522;2024-02-26T06:00:07;5.30;75.98
68912;SHT31;55953;51.650;-0.522;2024-02-26T06:02:38;5.35;75.71
68912;SHT31;55953;51.650;-0.522;2024-02-26T06:05:06;5.34;75.27
68912;SHT31;55953;51.650;-0.522;2024-02-26T06:07:36;5.33;75.50
68912;SHT31;55953;51.650;-0.522;2024-02-26T06:10:04;5.33;76.14
68912;SHT31;55953;51.650;-0.522;2024-02-26T06:12:36;5.30;76.13
68912;SHT31;55953;51.650;-0.522;2024-02-26T06:15:04;5.31;76.40
68912;SHT31;55953;51.650;-0.522;2024-02-26T06:17:32;5.27;76.52
68912;SHT31;55953;51.650;-0.522;2024-02-26T06:20:01;5.28;76.78
68912;SHT31;55953;51.650;-0.522;2024-02-26T06:22:32;5.27;76.89
68912;SHT31;55953;51.650;-0.522;2024-02-26T06:25:00;5.26;76.84
68912;SHT31;55953;51.650;-0.522;2024-02-26T06:27:28;5.24;76.71
68912;SHT31;55953;51.650;-0.522;2024-02-26T06:29:56;5.23;76.72
68912;SHT31;55953;51.650;-0.522;2024-02-26T06:32:24;5.23;76.36
68912;SHT31;55953;51.650;-0.522;2024-02-26T06:34:54;5.24;76.05
68912;SHT31;55953;51.650;-0.522;2024-02-26T06:37:23;5.23;76.19
68912;SHT31;55953;51.650;-0.522;2024-02-26T06:39:52;5.22;76.12
68912;SHT31;55953;51.650;-0.522;2024-02-26T06:42:20;5.26;76.05
68912;SHT31;55953;51.650;-0.522;2024-02-26T06:44:48;5.27;75.85
68912;SHT31;55953;51.650;-0.522;2024-02-26T06:47:16;5.24;75.94
68912;SHT31;55953;51.650;-0.522;2024-02-26T06:49:44;5.23;75.69
68912;SHT31;55953;51.650;-0.522;2024-02-26T06:52:12;5.24;75.77
68912;SHT31;55953;51.650;-0.522;2024-02-26T06:54:40;5.20;75.46
68912;SHT31;55953;51.650;-0.522;2024-02-26T06:57:09;5.21;75.41
68912;SHT31;55953;51.650;-0.522;2024-02-26T06:59:37;5.23;75.01
68912;SHT31;55953;51.650;-0.522;2024-02-26T07:02:05;5.24;74.84
68912;SHT31;55953;51.650;-0.522;2024-02-26T07:04:33;5.24;74.95
68912;SHT31;55953;51.650;-0.522;2024-02-26T07:07:01;5.23;74.91
68912;SHT31;55953;51.650;-0.522;2024-02-26T07:09:29;5.19;74.80
68912;SHT31;55953;51.650;-0.522;2024-02-26T07:11:57;5.15;74.59
68912;SHT31;55953;51.650;-0.522;2024-02-26T07:14:28;5.14;74.51
68912;SHT31;55953;51.650;-0.522;2024-02-26T07:16:56;5.13;74.78
68912;SHT31;55953;51.650;-0.522;2024-02-26T07:19:24;5.12;75.00
68912;SHT31;55953;51.650;-0.522;2024-02-26T07:21:52;5.14;75.36
68912;SHT31;55953;51.650;-0.522;2024-02-26T07:24:20;5.14;75.82
68912;SHT31;55953;51.650;-0.522;2024-02-26T07:26:48;5.13;76.12
68912;SHT31;55953;51.650;-0.522;2024-02-26T07:29:16;5.08;76.28
68912;SHT31;55953;51.650;-0.522;2024-02-26T07:31:43;5.10;76.41
68912;SHT31;55953;51.650;-0.522;2024-02-26T07:34:11;5.11;75.96
68912;SHT31;55953;51.650;-0.522;2024-02-26T07:36:39;5.17;75.81
68912;SHT31;55953;51.650;-0.522;2024-02-26T07:39:08;5.19;75.87
68912;SHT31;55953;51.650;-0.522;2024-02-26T07:41:35;5.20;75.73
68912;SHT31;55953;51.650;-0.522;2024-02-26T07:44:05;5.21;75.76
68912;SHT31;55953;51.650;-0.522;2024-02-26T07:46:33;5.24;75.77
68912;SHT31;55953;51.650;-0.522;2024-02-26T07:49:01;5.27;75.39
68912;SHT31;55953;51.650;-0.522;2024-02-26T07:51:29;5.33;75.49
68912;SHT31;55953;51.650;-0.522;2024-02-26T07:53:57;5.37;75.54
68912;SHT31;55953;51.650;-0.522;2024-02-26T07:56:25;5.35;75.47
68912;SHT31;55953;51.650;-0.522;2024-02-26T07:58:53;5.37;75.60
68912;SHT31;55953;51.650;-0.522;2024-02-26T08:01:21;5.41;75.86
68912;SHT31;55953;51.650;-0.522;2024-02-26T08:03:50;5.42;75.94
68912;SHT31;55953;51.650;-0.522;2024-02-26T08:06:18;5.47;75.94
68912;SHT31;55953;51.650;-0.522;2024-02-26T08:08:46;5.49;76.01
68912;SHT31;55953;51.650;-0.522;2024-02-26T08:11:15;5.55;76.04
68912;SHT31;55953;51.650;-0.522;2024-02-26T08:13:43;5.55;76.14
68912;SHT31;55953;51.650;-0.522;2024-02-26T08:16:11;5.56;76.23
68912;SHT31;55953;51.650;-0.522;2024-02-26T08:18:39;5.59;76.39
68912;SHT31;55953;51.650;-0.522;2024-02-26T08:21:07;5.57;76.38
68912;SHT31;55953;51.650;-0.522;2024-02-26T08:23:37;5.59;76.48
68912;SHT31;55953;51.650;-0.522;2024-02-26T08:26:05;5.63;76.59
68912;SHT31;55953;51.650;-0.522;2024-02-26T08:28:34;5.64;76.45
68912;SHT31;55953;51.650;-0.522;2024-02-26T08:31:04;5.68;76.34
68912;SHT31;55953;51.650;-0.522;2024-02-26T08:33:32;5.73;76.23
68912;SHT31;55953;51.650;-0.522;2024-02-26T08:36:06;5.78;76.12
68912;SHT31;55953;51.650;-0.522;2024-02-26T08:38:37;5.86;76.19
68912;SHT31;55953;51.650;-0.522;2024-02-26T08:41:04;5.88;76.49
68912;SHT31;55953;51.650;-0.522;2024-02-26T08:43:32;5.86;76.67
68912;SHT31;55953;51.650;-0.522;2024-02-26T08:46:00;5.86;76.89
68912;SHT31;55953;51.650;-0.522;2024-02-26T08:48:28;5.91;76.96
68912;SHT31;55953;51.650;-0.522;2024-02-26T08:50:56;5.94;77.02
68912;SHT31;55953;51.650;-0.522;2024-02-26T08:53:24;5.97;76.99
68912;SHT31;55953;51.650;-0.522;2024-02-26T08:56:07;5.96;76.74
68912;SHT31;55953;51.650;-0.522;2024-02-26T08:58:35;5.96;76.84
68912;SHT31;55953;51.650;-0.522;2024-02-26T09:01:03;5.97;76.46
68912;SHT31;55953;51.650;-0.522;2024-02-26T09:03:31;5.99;76.45
68912;SHT31;55953;51.650;-0.522;2024-02-26T09:06:00;6.00;76.19
68912;SHT31;55953;51.650;-0.522;2024-02-26T09:08:28;6.04;75.76
68912;SHT31;55953;51.650;-0.522;2024-02-26T09:10:56;6.02;75.83
68912;SHT31;55953;51.650;-0.522;2024-02-26T09:13:24;6.04;75.47
68912;SHT31;55953;51.650;-0.522;2024-02-26T09:15:51;6.06;75.62
68912;SHT31;55953;51.650;-0.522;2024-02-26T09:18:19;6.06;75.50
68912;SHT31;55953;51.650;-0.522;2024-02-26T09:20:47;6.16;75.52
68912;SHT31;55953;51.650;-0.522;2024-02-26T09:23:15;6.23;75.33
68912;SHT31;55953;51.650;-0.522;2024-02-26T09:25:43;6.22;75.13
68912;SHT31;55953;51.650;-0.522;2024-02-26T09:28:11;6.22;75.04
68912;SHT31;55953;51.650;-0.522;2024-02-26T09:30:39;6.24;74.92
68912;SHT31;55953;51.650;-0.522;2024-02-26T09:33:07;6.27;74.85
68912;SHT31;55953;51.650;-0.522;2024-02-26T09:35:36;6.25;74.63
68912;SHT31;55953;51.650;-0.522;2024-02-26T09:38:04;6.28;74.61
68912;SHT31;55953;51.650;-0.522;2024-02-26T09:40:34;6.30;74.44
68912;SHT31;55953;51.650;-0.522;2024-02-26T09:43:02;6.32;74.45
68912;SHT31;55953;51.650;-0.522;2024-02-26T09:45:33;6.37;74.43
68912;SHT31;55953;51.650;-0.522;2024-02-26T09:48:03;6.37;74.17
68912;SHT31;55953;51.650;-0.522;2024-02-26T09:50:36;6.38;74.17
68912;SHT31;55953;51.650;-0.522;2024-02-26T09:53:04;6.33;74.29
68912;SHT31;55953;51.650;-0.522;2024-02-26T09:55:37;6.26;75.06
68912;SHT31;55953;51.650;-0.522;2024-02-26T09:58:05;6.22;75.53
68912;SHT31;55953;51.650;-0.522;2024-02-26T10:00:37;6.15;75.78
68912;SHT31;55953;51.650;-0.522;2024-02-26T10:03:08;6.13;75.95
68912;SHT31;55953;51.650;-0.522;2024-02-26T10:05:43;6.17;75.74
68912;SHT31;55953;51.650;-0.522;2024-02-26T10:08:12;6.18;75.42
68912;SHT31;55953;51.650;-0.522;2024-02-26T10:10:41;6.16;75.42
68912;SHT31;55953;51.650;-0.522;2024-02-26T10:13:09;6.14;75.75
68912;SHT31;55953;51.650;-0.522;2024-02-26T10:15:39;6.17;76.57
68912;SHT31;55953;51.650;-0.522;2024-02-26T10:18:07;6.13;77.33
68912;SHT31;55953;51.650;-0.522;2024-02-26T10:20:35;6.03;78.02
68912;SHT31;55953;51.650;-0.522;2024-02-26T10:23:03;6.03;78.82
68912;SHT31;55953;51.650;-0.522;2024-02-26T10:25:35;5.98;79.13
68912;SHT31;55953;51.650;-0.522;2024-02-26T10:28:03;5.99;79.50
68912;SHT31;55953;51.650;-0.522;2024-02-26T10:30:32;5.96;79.36
68912;SHT31;55953;51.650;-0.522;2024-02-26T10:33:05;5.95;79.08
68912;SHT31;55953;51.650;-0.522;2024-02-26T10:35:35;5.95;79.40
68912;SHT31;55953;51.650;-0.522;2024-02-26T10:38:06;5.95;79.81
68912;SHT31;55953;51.650;-0.522;2024-02-26T10:40:35;5.99;79.67
68912;SHT31;55953;51.650;-0.522;2024-02-26T10:43:03;5.99;79.30
68912;SHT31;55953;51.650;-0.522;2024-02-26T10:45:31;5.97;79.04
68912;SHT31;55953;51.650;-0.522;2024-02-26T10:48:04;5.95;78.51
68912;SHT31;55953;51.650;-0.522;2024-02-26T10:50:32;5.93;76.98
68912;SHT31;55953;51.650;-0.522;2024-02-26T10:53:02;6.01;76.15
68912;SHT31;55953;51.650;-0.522;2024-02-26T10:55:34;6.12;74.78
68912;SHT31;55953;51.650;-0.522;2024-02-26T10:58:04;6.22;72.83
68912;SHT31;55953;51.650;-0.522;2024-02-26T11:00:37;6.29;72.61
68912;SHT31;55953;51.650;-0.522;2024-02-26T11:03:06;6.37;72.80
68912;SHT31;55953;51.650;-0.522;2024-02-26T11:05:38;6.47;72.64
68912;SHT31;55953;51.650;-0.522;2024-02-26T11:08:09;6.51;71.86
68912;SHT31;55953;51.650;-0.522;2024-02-26T11:10:39;6.62;70.98
68912;SHT31;55953;51.650;-0.522;2024-02-26T11:13:09;6.70;70.04
68912;SHT31;55953;51.650;-0.522;2024-02-26T11:15:41;6.79;69.71
68912;SHT31;55953;51.650;-0.522;2024-02-26T11:18:11;6.87;70.20
68912;SHT31;55953;51.650;-0.522;2024-02-26T11:20:41;6.92;70.26
68912;SHT31;55953;51.650;-0.522;2024-02-26T11:23:11;6.95;69.68
68912;SHT31;55953;51.650;-0.522;2024-02-26T11:25:39;6.90;68.92
68912;SHT31;55953;51.650;-0.522;2024-02-26T11:28:13;6.94;68.97
68912;SHT31;55953;51.650;-0.522;2024-02-26T11:30:47;6.96;69.00
68912;SHT31;55953;51.650;-0.522;2024-02-26T11:33:17;6.97;67.85
68912;SHT31;55953;51.650;-0.522;2024-02-26T11:35:48;7.05;67.66
68912;SHT31;55953;51.650;-0.522;2024-02-26T11:38:17;7.19;67.66
68912;SHT31;55953;51.650;-0.522;2024-02-26T11:40:49;7.27;66.96
68912;SHT31;55953;51.650;-0.522;2024-02-26T11:43:18;7.35;67.33
68912;SHT31;55953;51.650;-0.522;2024-02-26T11:45:51;7.37;66.98
68912;SHT31;55953;51.650;-0.522;2024-02-26T11:48:21;7.37;66.89
68912;SHT31;55953;51.650;-0.522;2024-02-26T11:53:25;7.49;67.62
68912;SHT31;55953;51.650;-0.522;2024-02-26T11:56:20;7.64;68.40
68912;SHT31;55953;51.650;-0.522;2024-02-26T11:59:09;7.67;67.71
68912;SHT31;55953;51.650;-0.522;2024-02-26T12:04:17;7.76;66.93
68912;SHT31;55953;51.650;-0.522;2024-02-26T12:06:53;7.75;64.35
68912;SHT31;55953;51.650;-0.522;2024-02-26T12:09:37;7.75;64.56
68912;SHT31;55953;51.650;-0.522;2024-02-26T12:12:09;7.70;63.69
68912;SHT31;55953;51.650;-0.522;2024-02-26T12:17:25;7.71;63.41
68912;SHT31;55953;51.650;-0.522;2024-02-26T12:19:53;7.72;63.68
68912;SHT31;55953;51.650;-0.522;2024-02-26T12:22:23;7.87;64.45
68912;SHT31;55953;51.650;-0.522;2024-02-26T12:24:58;7.96;63.43
68912;SHT31;55953;51.650;-0.522;2024-02-26T12:27:28;8.06;63.68
68912;SHT31;55953;51.650;-0.522;2024-02-26T12:29:56;8.13;63.27
68912;SHT31;55953;51.650;-0.522;2024-02-26T12:32:24;8.22;63.26
68912;SHT31;55953;51.650;-0.522;2024-02-26T12:34:52;8.21;62.39
68912;SHT31;55953;51.650;-0.522;2024-02-26T12:37:20;8.23;62.10
68912;SHT31;55953;51.650;-0.522;2024-02-26T12:39:48;8.32;61.24
68912;SHT31;55953;51.650;-0.522;2024-02-26T12:42:17;8.53;62.02
68912;SHT31;55953;51.650;-0.522;2024-02-26T12:44:46;8.66;62.14
68912;SHT31;55953;51.650;-0.522;2024-02-26T12:47:14;8.71;61.79
68912;SHT31;55953;51.650;-0.522;2024-02-26T12:49:45;8.81;61.18
68912;SHT31;55953;51.650;-0.522;2024-02-26T12:52:16;8.86;60.92
68912;SHT31;55953;51.650;-0.522;2024-02-26T12:54:44;8.83;60.83
68912;SHT31;55953;51.650;-0.522;2024-02-26T12:57:12;8.68;60.83
68912;SHT31;55953;51.650;-0.522;2024-02-26T12:59:41;8.55;61.76
68912;SHT31;55953;51.650;-0.522;2024-02-26T13:02:09;8.54;62.07
68912;SHT31;55953;51.650;-0.522;2024-02-26T13:04:39;8.51;61.82
68912;SHT31;55953;51.650;-0.522;2024-02-26T13:07:08;8.52;61.97
68912;SHT31;55953;51.650;-0.522;2024-02-26T13:09:38;8.55;62.47
68912;SHT31;55953;51.650;-0.522;2024-02-26T13:12:07;8.70;62.74
68912;SHT31;55953;51.650;-0.522;2024-02-26T13:14:36;8.76;61.89
68912;SHT31;55953;51.650;-0.522;2024-02-26T13:17:04;8.76;61.36
68912;SHT31;55953;51.650;-0.522;2024-02-26T13:19:32;8.75;61.22
68912;SHT31;55953;51.650;-0.522;2024-02-26T13:22:07;8.79;61.17
68912;SHT31;55953;51.650;-0.522;2024-02-26T13:24:35;8.84;61.30
68912;SHT31;55953;51.650;-0.522;2024-02-26T13:27:04;8.99;61.60
68912;SHT31;55953;51.650;-0.522;2024-02-26T13:29:34;9.18;61.12
68912;SHT31;55953;51.650;-0.522;2024-02-26T13:32:02;9.24;60.21
68912;SHT31;55953;51.650;-0.522;2024-02-26T13:34:31;9.31;60.91
68912;SHT31;55953;51.650;-0.522;2024-02-26T13:37:01;9.24;60.41
68912;SHT31;55953;51.650;-0.522;2024-02-26T13:39:29;8.95;59.81
68912;SHT31;55953;51.650;-0.522;2024-02-26T13:41:58;8.80;60.31
68912;SHT31;55953;51.650;-0.522;2024-02-26T13:44:26;8.81;61.22
68912;SHT31;55953;51.650;-0.522;2024-02-26T13:46:54;8.82;61.06
68912;SHT31;55953;51.650;-0.522;2024-02-26T13:49:22;8.95;61.20
68912;SHT31;55953;51.650;-0.522;2024-02-26T13:51:50;9.02;60.69
68912;SHT31;55953;51.650;-0.522;2024-02-26T13:54:18;8.94;59.66
68912;SHT31;55953;51.650;-0.522;2024-02-26T13:56:45;8.89;59.63
68912;SHT31;55953;51.650;-0.522;2024-02-26T13:59:15;8.86;60.12
68912;SHT31;55953;51.650;-0.522;2024-02-26T14:01:43;8.87;60.64
68912;SHT31;55953;51.650;-0.522;2024-02-26T14:04:11;8.77;60.44
68912;SHT31;55953;51.650;-0.522;2024-02-26T14:06:39;8.69;60.61
68912;SHT31;55953;51.650;-0.522;2024-02-26T14:09:07;8.57;60.30
68912;SHT31;55953;51.650;-0.522;2024-02-26T14:11:36;8.59;59.73
68912;SHT31;55953;51.650;-0.522;2024-02-26T14:14:07;8.72;60.08
68912;SHT31;55953;51.650;-0.522;2024-02-26T14:16:35;8.75;58.58
68912;SHT31;55953;51.650;-0.522;2024-02-26T14:19:03;8.81;58.87
68912;SHT31;55953;51.650;-0.522;2024-02-26T14:21:31;8.87;58.23
68912;SHT31;55953;51.650;-0.522;2024-02-26T14:24:00;8.90;58.21
68912;SHT31;55953;51.650;-0.522;2024-02-26T14:26:28;8.99;58.68
68912;SHT31;55953;51.650;-0.522;2024-02-26T14:28:56;8.98;58.71
68912;SHT31;55953;51.650;-0.522;2024-02-26T14:31:23;8.92;59.88
68912;SHT31;55953;51.650;-0.522;2024-02-26T14:33:53;8.82;60.75
68912;SHT31;55953;51.650;-0.522;2024-02-26T14:36:22;8.69;60.34
68912;SHT31;55953;51.650;-0.522;2024-02-26T14:38:50;8.70;60.99
68912;SHT31;55953;51.650;-0.522;2024-02-26T14:41:19;8.75;61.58
68912;SHT31;55953;51.650;-0.522;2024-02-26T14:43:47;8.81;61.89
68912;SHT31;55953;51.650;-0.522;2024-02-26T14:46:15;8.74;60.84
68912;SHT31;55953;51.650;-0.522;2024-02-26T14:48:43;8.65;60.02
68912;SHT31;55953;51.650;-0.522;2024-02-26T14:51:11;8.67;60.09
68912;SHT31;55953;51.650;-0.522;2024-02-26T14:53:39;8.68;59.51
68912;SHT31;55953;51.650;-0.522;2024-02-26T14:56:07;8.74;59.06
68912;SHT31;55953;51.650;-0.522;2024-02-26T14:58:34;8.76;59.09
68912;SHT31;55953;51.650;-0.522;2024-02-26T15:01:02;8.78;59.26
68912;SHT31;55953;51.650;-0.522;2024-02-26T15:03:31;8.76;59.34
68912;SHT31;55953;51.650;-0.522;2024-02-26T15:05:59;8.67;59.32
68912;SHT31;55953;51.650;-0.522;2024-02-26T15:08:27;8.72;60.13
68912;SHT31;55953;51.650;-0.522;2024-02-26T15:10:55;8.83;60.32
68912;SHT31;55953;51.650;-0.522;2024-02-26T15:13:23;8.91;59.48
68912;SHT31;55953;51.650;-0.522;2024-02-26T15:15:51;8.88;58.01
68912;SHT31;55953;51.650;-0.522;2024-02-26T15:18:19;8.88;57.68
68912;SHT31;55953;51.650;-0.522;2024-02-26T15:20:47;8.88;57.92
68912;SHT31;55953;51.650;-0.522;2024-02-26T15:23:15;8.88;58.43
68912;SHT31;55953;51.650;-0.522;2024-02-26T15:25:45;8.73;58.89
68912;SHT31;55953;51.650;-0.522;2024-02-26T15:28:13;8.63;59.81
68912;SHT31;55953;51.650;-0.522;2024-02-26T15:30:42;8.56;59.67
68912;SHT31;55953;51.650;-0.522;2024-02-26T15:33:10;8.57;59.20
68912;SHT31;55953;51.650;-0.522;2024-02-26T15:35:40;8.65;59.47
68912;SHT31;55953;51.650;-0.522;2024-02-26T15:38:12;8.70;59.49
68912;SHT31;55953;51.650;-0.522;2024-02-26T15:40:43;8.79;59.62
68912;SHT31;55953;51.650;-0.522;2024-02-26T15:43:12;8.82;59.83
68912;SHT31;55953;51.650;-0.522;2024-02-26T15:45:42;8.75;59.89
68912;SHT31;55953;51.650;-0.522;2024-02-26T15:48:10;8.61;59.90